sensor_id;sensor_type;location;lat;lon;timestamp;temperature;humidity
4435;DHT22;46552;52.150;8.428;2023-05-01T00:02:24;9.10;99.90
4435;DHT22;46552;52.150;8.428;2023-05-01T00:04:53;9.10;99.90
4435;DHT22;46552;52.150;8.428;2023-05-01T00:07:20;9.10;99.90
4435;DHT22;46552;52.150;8.428;2023-05-01T00:09:49;9.10;99.90
4435;DHT22;46552;52.150;8.428;2023-05-01T00:12:17;9.10;99.90
4435;DHT22;46552;52.150;8.428;2023-05-01T00:14:45;9.00;99.90
4435;DHT22;46552;52.150;8.428;2023-05-01T00:19:41;9.00;99.90
4435;DHT22;46552;52.150;8.428;2023-05-01T00:22:10;8.90;99.90
4435;DHT22;46552;52.150;8.428;2023-05-01T00:24:39;8.90;99.90
4435;DHT22;46552;52.150;8.428;2023-05-01T00:27:07;8.90;99.90
4435;DHT22;46552;52.150;8.428;2023-05-01T00:29:35;8.90;99.90
4435;DHT22;46552;52.150;8.428;2023-05-01T00:32:02;8.90;99.90
4435;DHT22;46552;52.150;8.428;2023-05-01T00:34:30;8.80;99.90
4435;DHT22;46552;52.150;8.428;2023-05-01T00:36:57;8.80;99.90
4435;DHT22;46552;52.150;8.428;2023-05-01T00:39:27;8.70;99.90
4435;DHT22;46552;52.150;8.428;2023-05-01T00:41:54;8.70;99.90
4435;DHT22;46552;52.150;8.428;2023-05-01T00:44:22;8.60;99.90
4435;DHT22;46552;52.150;8.428;2023-05-01T00:46:49;8.60;99.90
4435;DHT22;46552;52.150;8.428;2023-05-01T00:49:16;8.60;99.90
4435;DHT22;46552;52.150;8.428;2023-05-01T00:51:45;8.70;99.90
4435;DHT22;46552;52.150;8.428;2023-05-01T00:54:14;8.70;99.90
4435;DHT22;46552;52.150;8.428;2023-05-01T00:56:45;8.70;99.90
4435;DHT22;46552;52.150;8.428;2023-05-01T00:59:13;8.70;99.90
4435;DHT22;46552;52.150;8.428;2023-05-01T01:01:41;8.80;99.90
4435;DHT22;46552;52.150;8.428;2023-05-01T01:04:08;8.80;99.90
4435;DHT22;46552;52.150;8.428;2023-05-01T01:06:45;8.80;99.90
4435;DHT22;46552;52.150;8.428;2023-05-01T01:09:23;8.80;99.90
4435;DHT22;46552;52.150;8.428;2023-05-01T01:12:05;8.80;99.90
4435;DHT22;46552;52.150;8.428;2023-05-01T01:14:39;8.80;99.90
4435;DHT22;46552;52.150;8.428;2023-05-01T01:17:12;8.80;99.90
4435;DHT22;46552;52.150;8.428;2023-05-01T01:20:16;8.80;99.90
4435;DHT22;46552;52.150;8.428;2023-05-01T01:22:52;8.70;99.90
4435;DHT22;46552;52.150;8.428;2023-05-01T01:25:32;8.70;99.90
4435;DHT22;46552;52.150;8.428;2023-05-01T01:28:18;8.70;99.90
4435;DHT22;46552;52.150;8.428;2023-05-01T01:31:08;8.60;99.90
4435;DHT22;46552;52.150;8.428;2023-05-01T01:34:02;8.60;99.90
4435;DHT22;46552;52.150;8.428;2023-05-01T01:36:36;8.60;99.90
4435;DHT22;46552;52.150;8.428;2023-05-01T01:39:10;8.40;99.90
4435;DHT22;46552;52.150;8.428;2023-05-01T01:41:39;8.40;99.90
4435;DHT22;46552;52.150;8.428;2023-05-01T01:44:10;8.40;99.90
4435;DHT22;46552;52.150;8.428;2023-05-01T01:46:40;8.40;99.90
4435;DHT22;46552;52.150;8.428;2023-05-01T01:49:15;8.30;99.90
4435;DHT22;46552;52.150;8.428;2023-05-01T01:51:43;8.20;99.90
4435;DHT22;46552;52.150;8.428;2023-05-01T01:54:14;8.10;99.90
4435;DHT22;46552;52.150;8.428;2023-05-01T01:56:45;8.00;99.90
4435;DHT22;46552;52.150;8.428;2023-05-01T01:59:14;7.90;99.90
4435;DHT22;46552;52.150;8.428;2023-05-01T02:01:42;7.90;99.90
4435;DHT22;46552;52.150;8.428;2023-05-01T02:04:13;7.90;99.90
4435;DHT22;46552;52.150;8.428;2023-05-01T02:06:41;7.90;99.90
4435;DHT22;46552;52.150;8.428;2023-05-01T02:09:10;7.90;99.90
4435;DHT22;46552;52.150;8.428;2023-05-01T02:11:38;7.90;99.90
4435;DHT22;46552;52.150;8.428;2023-05-01T02:14:06;7.90;99.90
4435;DHT22;46552;52.150;8.428;2023-05-01T02:16:35;7.80;99.90
4435;DHT22;46552;52.150;8.428;2023-05-01T02:19:03;7.80;99.90
4435;DHT22;46552;52.150;8.428;2023-05-01T02:21:33;7.80;99.90
4435;DHT22;46552;52.150;8.428;2023-05-01T02:24:03;7.70;99.90
4435;DHT22;46552;52.150;8.428;2023-05-01T02:26:35;7.70;99.90
4435;DHT22;46552;52.150;8.428;2023-05-01T02:29:04;7.60;99.90
4435;DHT22;46552;52.150;8.428;2023-05-01T02:33:59;7.70;99.90
4435;DHT22;46552;52.150;8.428;2023-05-01T02:36:26;7.70;99.90
4435;DHT22;46552;52.150;8.428;2023-05-01T02:38:55;7.70;99.90
4435;DHT22;46552;52.150;8.428;2023-05-01T02:41:24;7.80;99.90
4435;DHT22;46552;52.150;8.428;2023-05-01T02:43:57;7.90;99.90
4435;DHT22;46552;52.150;8.428;2023-05-01T02:46:27;7.80;99.90
4435;DHT22;46552;52.150;8.428;2023-05-01T02:48:59;7.80;99.90
4435;DHT22;46552;52.150;8.428;2023-05-01T02:51:28;7.70;99.90
4435;DHT22;46552;52.150;8.428;2023-05-01T02:53:59;7.70;99.90
4435;DHT22;46552;52.150;8.428;2023-05-01T02:56:27;7.60;99.90
4435;DHT22;46552;52.150;8.428;2023-05-01T02:58:56;7.50;99.90
4435;DHT22;46552;52.150;8.428;2023-05-01T03:01:23;7.40;99.90
4435;DHT22;46552;52.150;8.428;2023-05-01T03:03:50;7.30;99.90
4435;DHT22;46552;52.150;8.428;2023-05-01T03:06:18;7.30;99.90
4435;DHT22;46552;52.150;8.428;2023-05-01T03:08:46;7.20;99.90
4435;DHT22;46552;52.150;8.428;2023-05-01T03:11:15;7.20;99.90
4435;DHT22;46552;52.150;8.428;2023-05-01T03:13:42;7.10;99.90
4435;DHT22;46552;52.150;8.428;2023-05-01T03:16:11;7.10;99.90
4435;DHT22;46552;52.150;8.428;2023-05-01T03:21:06;6.90;99.90
4435;DHT22;46552;52.150;8.428;2023-05-01T03:23:34;6.90;99.90
4435;DHT22;46552;52.150;8.428;2023-05-01T03:26:03;6.80;99.90
4435;DHT22;46552;52.150;8.428;2023-05-01T03:28:31;6.70;99.90
4435;DHT22;46552;52.150;8.428;2023-05-01T03:30:58;6.70;99.90
4435;DHT22;46552;52.150;8.428;2023-05-01T03:33:25;6.80;99.90
4435;DHT22;46552;52.150;8.428;2023-05-01T03:35:58;6.70;99.90
4435;DHT22;46552;52.150;8.428;2023-05-01T03:38:26;6.80;99.90
4435;DHT22;46552;52.150;8.428;2023-05-01T03:40:55;6.80;99.90
4435;DHT22;46552;52.150;8.428;2023-05-01T03:43:22;6.90;99.90
4435;DHT22;46552;52.150;8.428;2023-05-01T03:45:52;6.90;99.90
4435;DHT22;46552;52.150;8.428;2023-05-01T03:48:19;6.90;99.90
4435;DHT22;46552;52.150;8.428;2023-05-01T03:50:47;6.90;99.90
4435;DHT22;46552;52.150;8.428;2023-05-01T03:53:15;6.90;99.90
4435;DHT22;46552;52.150;8.428;2023-05-01T03:55:43;6.90;99.90
4435;DHT22;46552;52.150;8.428;2023-05-01T04:00:37;6.90;99.90
4435;DHT22;46552;52.150;8.428;2023-05-01T04:03:08;6.80;99.90
4435;DHT22;46552;52.150;8.428;2023-05-01T04:05:35;6.80;99.90
4435;DHT22;46552;52.150;8.428;2023-05-01T04:08:03;6.80;99.90
4435;DHT22;46552;52.150;8.428;2023-05-01T04:10:31;6.70;99.90
4435;DHT22;46552;52.150;8.428;2023-05-01T04:12:58;6.60;99.90
4435;DHT22;46552;52.150;8.428;2023-05-01T04:17:52;6.60;99.90
4435;DHT22;46552;52.150;8.428;2023-05-01T04:20:23;6.50;99.90
4435;DHT22;46552;52.150;8.428;2023-05-01T04:22:50;6.40;99.90
4435;DHT22;46552;52.150;8.428;2023-05-01T04:25:17;6.40;99.90
4435;DHT22;46552;52.150;8.428;2023-05-01T04:27:45;6.40;99.90
4435;DHT22;46552;52.150;8.428;2023-05-01T04:30:12;6.50;99.90
4435;DHT22;46552;52.150;8.428;2023-05-01T04:32:39;6.50;99.90
4435;DHT22;46552;52.150;8.428;2023-05-01T04:35:07;6.50;99.90
4435;DHT22;46552;52.150;8.428;2023-05-01T04:37:36;6.60;99.90
4435;DHT22;46552;52.150;8.428;2023-05-01T04:40:04;6.60;99.90
4435;DHT22;46552;52.150;8.428;2023-05-01T04:42:32;6.60;99.90
4435;DHT22;46552;52.150;8.428;2023-05-01T04:44:59;6.70;99.90
4435;DHT22;46552;52.150;8.428;2023-05-01T04:47:30;6.70;99.90
4435;DHT22;46552;52.150;8.428;2023-05-01T04:49:57;6.80;99.90
4435;DHT22;46552;52.150;8.428;2023-05-01T04:52:25;6.80;99.90
4435;DHT22;46552;52.150;8.428;2023-05-01T04:54:54;6.80;99.90
4435;DHT22;46552;52.150;8.428;2023-05-01T04:57:22;6.90;99.90
4435;DHT22;46552;52.150;8.428;2023-05-01T04:59:50;6.90;99.90
4435;DHT22;46552;52.150;8.428;2023-05-01T05:02:17;7.00;99.90
4435;DHT22;46552;52.150;8.428;2023-05-01T05:04:44;7.00;99.90
4435;DHT22;46552;52.150;8.428;2023-05-01T05:07:12;7.00;99.90
4435;DHT22;46552;52.150;8.428;2023-05-01T05:09:38;7.10;99.90
4435;DHT22;46552;52.150;8.428;2023-05-01T05:12:07;7.20;99.90
4435;DHT22;46552;52.150;8.428;2023-05-01T05:14:34;7.30;99.90
4435;DHT22;46552;52.150;8.428;2023-05-01T05:17:02;7.40;99.90
4435;DHT22;46552;52.150;8.428;2023-05-01T05:19:30;7.50;99.90
4435;DHT22;46552;52.150;8.428;2023-05-01T05:21:58;7.50;99.90
4435;DHT22;46552;52.150;8.428;2023-05-01T05:24:25;7.60;99.90
4435;DHT22;46552;52.150;8.428;2023-05-01T05:26:53;7.70;99.90
4435;DHT22;46552;52.150;8.428;2023-05-01T05:29:23;7.70;99.90
4435;DHT22;46552;52.150;8.428;2023-05-01T05:31:50;7.80;99.90
4435;DHT22;46552;52.150;8.428;2023-05-01T05:34:17;7.90;99.90
4435;DHT22;46552;52.150;8.428;2023-05-01T05:36:44;8.00;99.90
4435;DHT22;46552;52.150;8.428;2023-05-01T05:39:11;8.20;99.90
4435;DHT22;46552;52.150;8.428;2023-05-01T05:44:06;8.40;99.90
4435;DHT22;46552;52.150;8.428;2023-05-01T05:46:35;8.60;99.90
4435;DHT22;46552;52.150;8.428;2023-05-01T05:49:02;8.70;99.90
4435;DHT22;46552;52.150;8.428;2023-05-01T05:51:30;8.80;99.90
4435;DHT22;46552;52.150;8.428;2023-05-01T05:53:57;8.90;99.90
4435;DHT22;46552;52.150;8.428;2023-05-01T05:56:24;9.00;99.90
4435;DHT22;46552;52.150;8.428;2023-05-01T05:58:51;9.10;99.90
4435;DHT22;46552;52.150;8.428;2023-05-01T06:01:18;9.20;99.90
4435;DHT22;46552;52.150;8.428;2023-05-01T06:03:47;9.40;99.90
4435;DHT22;46552;52.150;8.428;2023-05-01T06:06:14;9.50;99.90
4435;DHT22;46552;52.150;8.428;2023-05-01T06:08:41;9.50;99.90
4435;DHT22;46552;52.150;8.428;2023-05-01T06:11:10;9.70;99.90
4435;DHT22;46552;52.150;8.428;2023-05-01T06:13:37;9.80;99.90
4435;DHT22;46552;52.150;8.428;2023-05-01T06:16:05;9.90;99.90
4435;DHT22;46552;52.150;8.428;2023-05-01T06:18:33;10.00;99.90
4435;DHT22;46552;52.150;8.428;2023-05-01T06:21:02;10.20;99.90
4435;DHT22;46552;52.150;8.428;2023-05-01T06:23:29;10.30;99.90
4435;DHT22;46552;52.150;8.428;2023-05-01T06:25:58;10.40;99.90
4435;DHT22;46552;52.150;8.428;2023-05-01T06:28:25;10.50;99.90
4435;DHT22;46552;52.150;8.428;2023-05-01T06:30:52;10.60;99.90
4435;DHT22;46552;52.150;8.428;2023-05-01T06:33:19;10.80;99.90
4435;DHT22;46552;52.150;8.428;2023-05-01T06:35:46;10.80;99.90
4435;DHT22;46552;52.150;8.428;2023-05-01T06:38:16;11.00;99.90
4435;DHT22;46552;52.150;8.428;2023-05-01T06:40:44;11.20;99.90
4435;DHT22;46552;52.150;8.428;2023-05-01T06:43:12;11.20;99.90
4435;DHT22;46552;52.150;8.428;2023-05-01T06:45:39;11.40;99.90
4435;DHT22;46552;52.150;8.428;2023-05-01T06:48:06;11.40;99.90
4435;DHT22;46552;52.150;8.428;2023-05-01T06:50:33;11.50;99.90
4435;DHT22;46552;52.150;8.428;2023-05-01T06:53:01;11.60;99.90
4435;DHT22;46552;52.150;8.428;2023-05-01T06:55:30;11.60;99.90
4435;DHT22;46552;52.150;8.428;2023-05-01T06:57:57;11.70;99.90
4435;DHT22;46552;52.150;8.428;2023-05-01T07:00:25;11.80;99.90
4435;DHT22;46552;52.150;8.428;2023-05-01T07:02:52;11.90;99.90
4435;DHT22;46552;52.150;8.428;2023-05-01T07:05:19;12.00;99.90
4435;DHT22;46552;52.150;8.428;2023-05-01T07:07:48;12.30;99.90
4435;DHT22;46552;52.150;8.428;2023-05-01T07:10:15;12.20;99.90
4435;DHT22;46552;52.150;8.428;2023-05-01T07:12:45;12.50;99.90
4435;DHT22;46552;52.150;8.428;2023-05-01T07:15:13;12.50;99.90
4435;DHT22;46552;52.150;8.428;2023-05-01T07:17:41;12.60;99.90
4435;DHT22;46552;52.150;8.428;2023-05-01T07:20:09;12.80;99.90
4435;DHT22;46552;52.150;8.428;2023-05-01T07:22:37;12.90;99.90
4435;DHT22;46552;52.150;8.428;2023-05-01T07:25:05;13.00;99.90
4435;DHT22;46552;52.150;8.428;2023-05-01T07:27:32;13.10;99.90
4435;DHT22;46552;52.150;8.428;2023-05-01T07:30:01;13.30;99.60
4435;DHT22;46552;52.150;8.428;2023-05-01T07:32:29;13.40;99.90
4435;DHT22;46552;52.150;8.428;2023-05-01T07:34:57;13.60;99.40
4435;DHT22;46552;52.150;8.428;2023-05-01T07:37:25;13.60;99.60
4435;DHT22;46552;52.150;8.428;2023-05-01T07:39:53;13.60;99.00
4435;DHT22;46552;52.150;8.428;2023-05-01T07:42:20;13.70;97.50
4435;DHT22;46552;52.150;8.428;2023-05-01T07:44:49;13.70;98.40
4435;DHT22;46552;52.150;8.428;2023-05-01T07:47:18;13.70;98.10
4435;DHT22;46552;52.150;8.428;2023-05-01T07:49:45;13.80;98.00
4435;DHT22;46552;52.150;8.428;2023-05-01T07:52:13;13.80;97.40
4435;DHT22;46552;52.150;8.428;2023-05-01T07:54:41;13.80;97.60
4435;DHT22;46552;52.150;8.428;2023-05-01T07:57:08;13.80;97.40
4435;DHT22;46552;52.150;8.428;2023-05-01T07:59:35;13.80;96.90
4435;DHT22;46552;52.150;8.428;2023-05-01T08:02:03;13.80;97.10
4435;DHT22;46552;52.150;8.428;2023-05-01T08:04:32;14.00;97.30
4435;DHT22;46552;52.150;8.428;2023-05-01T08:06:59;14.50;96.60
4435;DHT22;46552;52.150;8.428;2023-05-01T08:09:26;14.70;96.30
4435;DHT22;46552;52.150;8.428;2023-05-01T08:11:53;14.70;96.60
4435;DHT22;46552;52.150;8.428;2023-05-01T08:14:22;15.00;96.40
4435;DHT22;46552;52.150;8.428;2023-05-01T08:16:50;15.20;96.00
4435;DHT22;46552;52.150;8.428;2023-05-01T08:19:19;15.40;95.70
4435;DHT22;46552;52.150;8.428;2023-05-01T08:21:49;15.50;95.40
4435;DHT22;46552;52.150;8.428;2023-05-01T08:24:16;15.70;95.30
4435;DHT22;46552;52.150;8.428;2023-05-01T08:26:43;15.90;95.10
4435;DHT22;46552;52.150;8.428;2023-05-01T08:29:10;16.10;94.80
4435;DHT22;46552;52.150;8.428;2023-05-01T08:31:38;16.20;94.60
4435;DHT22;46552;52.150;8.428;2023-05-01T08:34:07;16.20;94.40
4435;DHT22;46552;52.150;8.428;2023-05-01T08:36:34;16.40;94.30
4435;DHT22;46552;52.150;8.428;2023-05-01T08:39:05;16.50;94.10
4435;DHT22;46552;52.150;8.428;2023-05-01T08:41:32;16.60;94.00
4435;DHT22;46552;52.150;8.428;2023-05-01T08:44:01;16.80;94.00
4435;DHT22;46552;52.150;8.428;2023-05-01T08:46:36;17.00;93.70
4435;DHT22;46552;52.150;8.428;2023-05-01T08:49:05;17.20;92.70
4435;DHT22;46552;52.150;8.428;2023-05-01T08:51:34;17.30;92.60
4435;DHT22;46552;52.150;8.428;2023-05-01T08:54:05;17.30;92.90
4435;DHT22;46552;52.150;8.428;2023-05-01T08:56:35;17.50;92.70
4435;DHT22;46552;52.150;8.428;2023-05-01T08:59:03;17.90;92.30
4435;DHT22;46552;52.150;8.428;2023-05-01T09:01:32;17.90;92.60
4435;DHT22;46552;52.150;8.428;2023-05-01T09:04:01;18.10;92.20
4435;DHT22;46552;52.150;8.428;2023-05-01T09:06:29;18.30;91.90
4435;DHT22;46552;52.150;8.428;2023-05-01T09:11:26;18.70;91.00
4435;DHT22;46552;52.150;8.428;2023-05-01T09:13:55;18.90;91.00
4435;DHT22;46552;52.150;8.428;2023-05-01T09:16:23;19.20;90.70
4435;DHT22;46552;52.150;8.428;2023-05-01T09:18:50;19.50;89.60
4435;DHT22;46552;52.150;8.428;2023-05-01T09:21:17;19.80;88.40
4435;DHT22;46552;52.150;8.428;2023-05-01T09:23:44;19.70;89.40
4435;DHT22;46552;52.150;8.428;2023-05-01T09:26:11;19.80;89.30
4435;DHT22;46552;52.150;8.428;2023-05-01T09:28:41;19.90;88.30
4435;DHT22;46552;52.150;8.428;2023-05-01T09:31:20;20.10;87.50
4435;DHT22;46552;52.150;8.428;2023-05-01T09:33:52;20.30;87.00
4435;DHT22;46552;52.150;8.428;2023-05-01T09:38:47;20.60;83.60
4435;DHT22;46552;52.150;8.428;2023-05-01T09:41:14;20.70;83.80
4435;DHT22;46552;52.150;8.428;2023-05-01T09:43:48;20.80;82.50
4435;DHT22;46552;52.150;8.428;2023-05-01T09:48:52;21.10;80.60
4435;DHT22;46552;52.150;8.428;2023-05-01T09:51:21;21.20;78.70
4435;DHT22;46552;52.150;8.428;2023-05-01T09:53:49;21.30;80.00
4435;DHT22;46552;52.150;8.428;2023-05-01T09:56:17;21.40;80.20
4435;DHT22;46552;52.150;8.428;2023-05-01T09:58:48;21.70;77.90
4435;DHT22;46552;52.150;8.428;2023-05-01T10:01:17;20.80;76.50
4435;DHT22;46552;52.150;8.428;2023-05-01T10:03:44;21.90;78.20
4435;DHT22;46552;52.150;8.428;2023-05-01T10:06:11;22.10;77.30
4435;DHT22;46552;52.150;8.428;2023-05-01T10:08:51;22.10;76.80
4435;DHT22;46552;52.150;8.428;2023-05-01T10:11:19;22.10;76.50
4435;DHT22;46552;52.150;8.428;2023-05-01T10:14:04;22.00;75.00
4435;DHT22;46552;52.150;8.428;2023-05-01T10:16:34;22.10;75.20
4435;DHT22;46552;52.150;8.428;2023-05-01T10:19:02;22.40;74.80
4435;DHT22;46552;52.150;8.428;2023-05-01T10:21:29;22.60;73.50
4435;DHT22;46552;52.150;8.428;2023-05-01T10:23:57;22.60;73.20
4435;DHT22;46552;52.150;8.428;2023-05-01T10:26:26;22.90;71.40
4435;DHT22;46552;52.150;8.428;2023-05-01T10:28:57;22.90;72.20
4435;DHT22;46552;52.150;8.428;2023-05-01T10:31:26;23.30;70.70
4435;DHT22;46552;52.150;8.428;2023-05-01T10:33:54;23.30;72.00
4435;DHT22;46552;52.150;8.428;2023-05-01T10:36:25;23.60;70.70
4435;DHT22;46552;52.150;8.428;2023-05-01T10:38:54;24.00;70.90
4435;DHT22;46552;52.150;8.428;2023-05-01T10:44:27;24.60;69.10
4435;DHT22;46552;52.150;8.428;2023-05-01T10:46:54;25.00;66.90
4435;DHT22;46552;52.150;8.428;2023-05-01T10:49:21;24.90;67.50
4435;DHT22;46552;52.150;8.428;2023-05-01T10:51:59;25.00;66.90
4435;DHT22;46552;52.150;8.428;2023-05-01T10:54:29;25.20;64.90
4435;DHT22;46552;52.150;8.428;2023-05-01T10:56:57;25.20;64.60
4435;DHT22;46552;52.150;8.428;2023-05-01T10:59:28;25.40;62.30
4435;DHT22;46552;52.150;8.428;2023-05-01T11:02:20;25.40;63.10
4435;DHT22;46552;52.150;8.428;2023-05-01T11:04:49;25.40;62.40
4435;DHT22;46552;52.150;8.428;2023-05-01T11:07:21;25.60;62.20
4435;DHT22;46552;52.150;8.428;2023-05-01T11:09:50;25.80;61.50
4435;DHT22;46552;52.150;8.428;2023-05-01T11:12:50;26.10;60.60
4435;DHT22;46552;52.150;8.428;2023-05-01T11:15:30;26.10;60.50
4435;DHT22;46552;52.150;8.428;2023-05-01T11:17:58;26.20;60.40
4435;DHT22;46552;52.150;8.428;2023-05-01T11:20:48;26.20;60.00
4435;DHT22;46552;52.150;8.428;2023-05-01T11:23:19;26.10;57.70
4435;DHT22;46552;52.150;8.428;2023-05-01T11:25:47;25.90;57.60
4435;DHT22;46552;52.150;8.428;2023-05-01T11:28:19;25.70;58.30
4435;DHT22;46552;52.150;8.428;2023-05-01T11:30:51;25.80;57.40
4435;DHT22;46552;52.150;8.428;2023-05-01T11:33:23;26.00;56.30
4435;DHT22;46552;52.150;8.428;2023-05-01T11:35:57;25.90;56.80
4435;DHT22;46552;52.150;8.428;2023-05-01T11:38:25;26.10;56.30
4435;DHT22;46552;52.150;8.428;2023-05-01T11:40:58;25.90;56.10
4435;DHT22;46552;52.150;8.428;2023-05-01T11:43:26;26.00;55.00
4435;DHT22;46552;52.150;8.428;2023-05-01T11:45:55;26.00;55.90
4435;DHT22;46552;52.150;8.428;2023-05-01T11:48:28;26.30;55.70
4435;DHT22;46552;52.150;8.428;2023-05-01T11:50:56;26.30;56.20
4435;DHT22;46552;52.150;8.428;2023-05-01T11:53:23;26.50;56.00
4435;DHT22;46552;52.150;8.428;2023-05-01T11:55:50;26.60;55.70
4435;DHT22;46552;52.150;8.428;2023-05-01T11:58:30;26.40;53.80
4435;DHT22;46552;52.150;8.428;2023-05-01T12:00:59;26.40;53.80
4435;DHT22;46552;52.150;8.428;2023-05-01T12:03:27;26.20;55.20
4435;DHT22;46552;52.150;8.428;2023-05-01T12:06:05;25.90;55.10
4435;DHT22;46552;52.150;8.428;2023-05-01T12:08:33;25.30;53.90
4435;DHT22;46552;52.150;8.428;2023-05-01T12:11:00;25.20;55.60
4435;DHT22;46552;52.150;8.428;2023-05-01T12:13:28;25.30;55.40
4435;DHT22;46552;52.150;8.428;2023-05-01T12:15:56;25.40;54.80
4435;DHT22;46552;52.150;8.428;2023-05-01T12:18:25;25.40;55.00
4435;DHT22;46552;52.150;8.428;2023-05-01T12:20:53;25.50;55.10
4435;DHT22;46552;52.150;8.428;2023-05-01T12:23:29;25.60;55.00
4435;DHT22;46552;52.150;8.428;2023-05-01T12:25:57;25.70;54.90
4435;DHT22;46552;52.150;8.428;2023-05-01T12:28:24;25.70;55.00
4435;DHT22;46552;52.150;8.428;2023-05-01T12:30:53;25.70;55.10
4435;DHT22;46552;52.150;8.428;2023-05-01T12:33:27;25.60;54.80
4435;DHT22;46552;52.150;8.428;2023-05-01T12:36:08;25.50;54.50
4435;DHT22;46552;52.150;8.428;2023-05-01T12:38:37;25.50;54.80
4435;DHT22;46552;52.150;8.428;2023-05-01T12:41:04;25.50;54.80
4435;DHT22;46552;52.150;8.428;2023-05-01T12:43:35;25.50;54.40
4435;DHT22;46552;52.150;8.428;2023-05-01T12:46:04;25.50;54.10
4435;DHT22;46552;52.150;8.428;2023-05-01T12:48:38;25.50;54.40
4435;DHT22;46552;52.150;8.428;2023-05-01T12:51:06;25.20;53.30
4435;DHT22;46552;52.150;8.428;2023-05-01T12:53:34;25.10;54.00
4435;DHT22;46552;52.150;8.428;2023-05-01T12:56:20;24.70;53.20
4435;DHT22;46552;52.150;8.428;2023-05-01T12:58:48;24.50;54.00
4435;DHT22;46552;52.150;8.428;2023-05-01T13:01:23;24.50;54.60
4435;DHT22;46552;52.150;8.428;2023-05-01T13:03:53;24.20;54.40
4435;DHT22;46552;52.150;8.428;2023-05-01T13:06:30;23.90;54.00
4435;DHT22;46552;52.150;8.428;2023-05-01T13:09:06;23.90;55.20
4435;DHT22;46552;52.150;8.428;2023-05-01T13:11:39;23.70;55.00
4435;DHT22;46552;52.150;8.428;2023-05-01T13:14:06;23.70;55.30
4435;DHT22;46552;52.150;8.428;2023-05-01T13:16:43;23.60;55.80
4435;DHT22;46552;52.150;8.428;2023-05-01T13:19:24;23.60;55.90
4435;DHT22;46552;52.150;8.428;2023-05-01T13:21:53;23.60;54.70
4435;DHT22;46552;52.150;8.428;2023-05-01T13:24:21;23.50;54.90
4435;DHT22;46552;52.150;8.428;2023-05-01T13:26:55;23.50;55.10
4435;DHT22;46552;52.150;8.428;2023-05-01T13:29:26;23.50;55.30
4435;DHT22;46552;52.150;8.428;2023-05-01T13:31:55;23.50;55.30
4435;DHT22;46552;52.150;8.428;2023-05-01T13:34:28;23.50;53.80
4435;DHT22;46552;52.150;8.428;2023-05-01T13:36:58;23.50;54.50
4435;DHT22;46552;52.150;8.428;2023-05-01T13:39:25;23.70;55.20
4435;DHT22;46552;52.150;8.428;2023-05-01T13:41:53;23.80;55.40
4435;DHT22;46552;52.150;8.428;2023-05-01T13:44:21;23.90;55.50
4435;DHT22;46552;52.150;8.428;2023-05-01T13:46:49;24.00;55.90
4435;DHT22;46552;52.150;8.428;2023-05-01T13:49:19;24.10;56.10
4435;DHT22;46552;52.150;8.428;2023-05-01T13:51:49;24.30;55.30
4435;DHT22;46552;52.150;8.428;2023-05-01T13:54:18;24.30;55.70
4435;DHT22;46552;52.150;8.428;2023-05-01T13:56:45;24.30;54.80
4435;DHT22;46552;52.150;8.428;2023-05-01T13:59:13;24.10;54.10
4435;DHT22;46552;52.150;8.428;2023-05-01T14:01:42;24.10;54.90
4435;DHT22;46552;52.150;8.428;2023-05-01T14:04:14;23.90;54.60
4435;DHT22;46552;52.150;8.428;2023-05-01T14:06:43;23.70;55.30
4435;DHT22;46552;52.150;8.428;2023-05-01T14:09:14;23.50;54.80
4435;DHT22;46552;52.150;8.428;2023-05-01T14:11:44;23.50;55.40
4435;DHT22;46552;52.150;8.428;2023-05-01T14:14:12;23.70;55.50
4435;DHT22;46552;52.150;8.428;2023-05-01T14:16:40;23.80;55.20
4435;DHT22;46552;52.150;8.428;2023-05-01T14:19:09;23.90;55.20
4435;DHT22;46552;52.150;8.428;2023-05-01T14:21:39;23.80;55.00
4435;DHT22;46552;52.150;8.428;2023-05-01T14:24:07;23.70;54.70
4435;DHT22;46552;52.150;8.428;2023-05-01T14:26:38;23.60;55.30
4435;DHT22;46552;52.150;8.428;2023-05-01T14:29:13;23.50;55.60
4435;DHT22;46552;52.150;8.428;2023-05-01T14:31:43;23.40;55.60
4435;DHT22;46552;52.150;8.428;2023-05-01T14:34:14;23.30;55.40
4435;DHT22;46552;52.150;8.428;2023-05-01T14:36:43;23.20;55.40
4435;DHT22;46552;52.150;8.428;2023-05-01T14:39:11;23.10;55.50
4435;DHT22;46552;52.150;8.428;2023-05-01T14:41:42;23.00;55.70
4435;DHT22;46552;52.150;8.428;2023-05-01T14:44:10;23.00;55.70
4435;DHT22;46552;52.150;8.428;2023-05-01T14:46:43;23.00;55.90
4435;DHT22;46552;52.150;8.428;2023-05-01T14:49:17;22.90;55.90
4435;DHT22;46552;52.150;8.428;2023-05-01T14:51:46;22.80;55.70
4435;DHT22;46552;52.150;8.428;2023-05-01T14:54:13;22.80;55.80
4435;DHT22;46552;52.150;8.428;2023-05-01T14:56:43;22.80;56.10
4435;DHT22;46552;52.150;8.428;2023-05-01T14:59:11;22.60;55.60
4435;DHT22;46552;52.150;8.428;2023-05-01T15:01:38;22.60;56.30
4435;DHT22;46552;52.150;8.428;2023-05-01T15:04:06;22.60;56.50
4435;DHT22;46552;52.150;8.428;2023-05-01T15:06:35;22.60;56.60
4435;DHT22;46552;52.150;8.428;2023-05-01T15:09:03;22.50;56.80
4435;DHT22;46552;52.150;8.428;2023-05-01T15:11:31;22.50;56.90
4435;DHT22;46552;52.150;8.428;2023-05-01T15:13:59;22.40;57.20
4435;DHT22;46552;52.150;8.428;2023-05-01T15:16:27;22.40;57.50
4435;DHT22;46552;52.150;8.428;2023-05-01T15:18:55;22.30;56.90
4435;DHT22;46552;52.150;8.428;2023-05-01T15:21:23;22.30;57.40
4435;DHT22;46552;52.150;8.428;2023-05-01T15:23:51;22.20;57.20
4435;DHT22;46552;52.150;8.428;2023-05-01T15:26:18;22.20;57.60
4435;DHT22;46552;52.150;8.428;2023-05-01T15:28:45;22.10;57.30
4435;DHT22;46552;52.150;8.428;2023-05-01T15:31:14;22.10;57.30
4435;DHT22;46552;52.150;8.428;2023-05-01T15:33:43;22.00;56.90
4435;DHT22;46552;52.150;8.428;2023-05-01T15:36:11;21.90;56.80
4435;DHT22;46552;52.150;8.428;2023-05-01T15:38:38;21.70;56.90
4435;DHT22;46552;52.150;8.428;2023-05-01T15:41:06;21.60;57.10
4435;DHT22;46552;52.150;8.428;2023-05-01T15:43:33;21.60;57.60
4435;DHT22;46552;52.150;8.428;2023-05-01T15:46:00;21.40;58.30
4435;DHT22;46552;52.150;8.428;2023-05-01T15:48:29;21.30;58.70
4435;DHT22;46552;52.150;8.428;2023-05-01T15:50:58;21.30;59.70
4435;DHT22;46552;52.150;8.428;2023-05-01T15:53:25;21.30;59.70
4435;DHT22;46552;52.150;8.428;2023-05-01T15:55:55;21.20;60.30
4435;DHT22;46552;52.150;8.428;2023-05-01T15:58:22;21.30;60.50
4435;DHT22;46552;52.150;8.428;2023-05-01T16:00:50;21.30;61.50
4435;DHT22;46552;52.150;8.428;2023-05-01T16:03:17;21.30;61.00
4435;DHT22;46552;52.150;8.428;2023-05-01T16:05:46;21.40;60.50
4435;DHT22;46552;52.150;8.428;2023-05-01T16:08:13;21.40;59.40
4435;DHT22;46552;52.150;8.428;2023-05-01T16:10:41;21.50;59.20
4435;DHT22;46552;52.150;8.428;2023-05-01T16:13:09;21.50;59.10
4435;DHT22;46552;52.150;8.428;2023-05-01T16:15:37;21.80;58.90
4435;DHT22;46552;52.150;8.428;2023-05-01T16:18:04;21.80;59.60
4435;DHT22;46552;52.150;8.428;2023-05-01T16:20:33;21.90;59.20
4435;DHT22;46552;52.150;8.428;2023-05-01T16:23:03;21.80;58.70
4435;DHT22;46552;52.150;8.428;2023-05-01T16:25:31;21.80;58.70
4435;DHT22;46552;52.150;8.428;2023-05-01T16:27:58;21.70;58.60
4435;DHT22;46552;52.150;8.428;2023-05-01T16:30:25;21.60;58.10
4435;DHT22;46552;52.150;8.428;2023-05-01T16:32:53;21.50;58.60